Le Roy, Kansas
Current Conditions -  °F | °C
As of 1:52 PM on Thursday 29 Jan 2015 (Local Time) from KCNU Reporting Station
Overcast Overcast  
Wind Chill: 41°   Ceiling: 3900
Heat Index: 48°   Visibility: 10mi
Dew Point: 29°   Wind: 20mph
Humidity: 48%   Direction: 330°NNW
Pressure: 30.39"   Gusts: 30mph
Location:  38.08°N, 95.63°W
Report Text: KCNU 291952Z AUTO 33017G26KT 10SM OVC039 09/M02 A3039 RMK AO2 PK WND 32026/1948 SLP289 T00891017
Loading
Personal Weather Stations






























Interactive Weather Map New forecast layout! Learn more

10-Day Weather Forecast

Advertisements
Track Severe Weather on mobile